Data for 06/28/2013

Time Sea-Level Adjusted Pressure Absolute Pressure Temperature Relative Humidity Dew Point   
(mb) (inHg) (mb) (inHg) (C) (F) (%) (C) (F)
10:50 1026 30.3 855 25.25 23.9 74.9 37 8.6 47.4
10:55 1026 30.3 855 25.25 24.2 75.5 36 8.6 47.4
11:00 1026 30.3 855 25.25 24.1 75.4 37 8.9 48
11:05 1026 30.3 855 25.25 23.9 74.9 39 9.3 48.7
11:10 1026 30.3 855 25.25 23.4 74.1 40 9.3 48.7
11:15 1026 30.3 855 25.25 23.8 74.9 37 8.3 47
11:20 1026 30.3 855 25.25 24.2 75.6 36 8.6 47.4
11:25 1026 30.3 855 25.25 24.4 76 36 8.6 47.5
11:30 1026 30.3 855 25.25 24.4 76 36 8.5 47.4
11:35 1026 30.3 855 25.25 24.4 75.9 36 8.7 47.7
11:40 1026 30.3 855 25.25 24.4 76 35 8.3 47
11:45 1026 30.3 855 25.25 25.1 77.1 34 8.5 47.4
11:50 1026 30.3 855 25.25 25.3 77.5 36 9.2 48.6
11:55 1026 30.3 855 25.25 24.9 76.8 35 8.7 47.6
12:00 1026 30.3 855 25.25 25.5 77.9 34 8.7 47.7
12:05 1026 30.3 855 25.25 25.4 77.7 35 9 48.1
12:10 1026 30.3 855 25.25 25.6 78.1 33 8.6 47.5
12:15 1026 30.3 855 25.25 26.4 79.6 33 9.1 48.4
12:20 1025 30.27 855 25.25 26.4 79.5 33 9.3 48.7
12:25 1025 30.27 855 25.25 25.3 77.6 36 9.6 49.3
12:30 1025 30.27 855 25.25 25.6 78.1 35 9.1 48.4
12:35 1025 30.27 855 25.25 25.8 78.4 34 8.8 47.8
12:40 1025 30.27 855 25.25 25.9 78.6 36 9.8 49.6
12:45 1025 30.27 854 25.22 25.6 78.1 34 8.7 47.7
12:50 1025 30.27 854 25.22 26.4 79.5 32 8.5 47.3
12:55 1025 30.27 854 25.22 26.6 79.9 31 8.2 46.7
13:00 1025 30.27 854 25.22 26.8 80.3 31 8.7 47.7
13:05 1025 30.27 854 25.22 26.9 80.4 31 8.7 47.6
13:10 1025 30.27 854 25.22 26.6 79.9 31 8.5 47.2
13:15 1025 30.27 854 25.22 27 80.6 30 8.1 46.6
13:20 1025 30.27 854 25.22 27.3 81.1 29 7.8 46.1
13:25 1025 30.27 854 25.22 27.1 80.8 29 8 46.3
13:30 1025 30.27 854 25.22 27.3 81.1 29 8.2 46.7
13:35 1025 30.27 854 25.22 27.5 81.5 28 7.8 46.1
13:40 1025 30.27 854 25.22 28.3 82.9 28 8.2 46.8
13:45 1025 30.27 854 25.22 28.3 82.9 27 7.6 45.6
13:50 1025 30.27 854 25.22 28.1 82.6 26 7.3 45.1
13:55 1025 30.27 854 25.22 28 82.4 27 7.5 45.5
14:00 1025 30.27 854 25.22 28.3 82.9 26 7.4 45.2
14:05 1025 30.27 854 25.22 29.1 84.3 25 7.4 45.3
14:10 1025 30.27 854 25.22 28.4 83 26 7.4 45.3
14:15 1025 30.27 854 25.22 28.5 83.3 25 7 44.6
14:20 1025 30.27 854 25.22 28.5 83.4 25 7.1 44.8
14:25 1025 30.27 854 25.22 29.1 84.3 25 7.3 45.1
14:30 1025 30.27 854 25.22 29.2 84.5 24 6.7 44
14:35 1025 30.27 854 25.22 29 84.2 24 6.9 44.4
14:40 1025 30.27 854 25.22 29 84.1 23 6.3 43.4
14:45 1025 30.27 854 25.22 29.1 84.3 23 6.1 42.9
14:50 1025 30.27 854 25.22 28.7 83.7 23 6 42.8
14:55 1025 30.27 854 25.22 28.8 83.8 23 6.1 43
15:00 1025 30.27 854 25.22 29.1 84.4 23 6.4 43.4
15:05 1025 30.27 854 25.22 29 84.2 23 6.3 43.3
15:10 1024 30.24 854 25.22 29.2 84.6 23 6.4 43.5
15:15 1024 30.24 854 25.22 29.1 84.4 22 5.8 42.4
15:20 1024 30.24 854 25.22 29.6 85.2 23 6.7 44
15:25 1024 30.24 854 25.22 29.7 85.4 22 6 42.8
15:30 1024 30.24 854 25.22 29.4 84.8 22 5.9 42.7
15:35 1024 30.24 854 25.22 29.5 85 21 5.5 41.8
15:40 1024 30.24 853 25.19 29 84.2 21 5 41
15:45 1024 30.24 854 25.22 28.9 84 22 5.6 42.1
15:50 1024 30.24 854 25.22 29.3 84.7 23 6.1 43.1
15:55 1024 30.24 853 25.19 28.9 83.9 23 6 42.9
16:00 1024 30.24 853 25.19 28.6 83.5 23 6 42.8
16:05 1024 30.24 853 25.19 29 84.2 22 5.6 42.1
16:10 1024 30.24 853 25.19 29.3 84.8 22 5.6 42.1
16:15 1024 30.24 853 25.19 29.9 85.8 22 6 42.8
16:20 1024 30.24 853 25.19 30 85.9 21 5.5 42
16:25 1024 30.24 853 25.19 29.9 85.8 21 5.6 42.1
16:30 1024 30.24 853 25.19 30 86.1 20 5.3 41.6
16:35 1024 30.24 853 25.19 29.7 85.4 22 5.7 42.3
16:40 1024 30.24 853 25.19 29.6 85.3 21 5.2 41.4
16:45 1024 30.24 853 25.19 29.7 85.5 22 6.1 43
16:50 1024 30.24 853 25.19 29.7 85.5 20 5 40.9
16:55 1024 30.24 853 25.19 29.8 85.7 20 5.1 41.2
17:00 1024 30.24 853 25.19 29.6 85.2 20 4.9 40.8
00:05 1027 30.33 856 25.28 19.5 67.1 50 9.1 48.3
00:10 1027 30.33 856 25.28 19.4 66.8 51 9 48.2
00:15 1027 30.33 856 25.28 19.3 66.7 52 9.2 48.6
00:20 1027 30.33 856 25.28 19 66.2 53 9.2 48.6
00:25 1027 30.33 856 25.28 18.7 65.7 54 9.3 48.8
00:30 1027 30.33 856 25.28 18.4 65.1 58 10 50.1
00:35 1027 30.33 856 25.28 18.2 64.7 56 9.3 48.8
00:40 1027 30.33 856 25.28 17.8 64.1 57 9.4 48.9
00:45 1027 30.33 856 25.28 17.4 63.4 59 9.3 48.8
00:50 1027 30.33 856 25.28 17.4 63.3 58 9.1 48.4
00:55 1027 30.33 856 25.28 17.5 63.6 57 9 48.2
01:00 1027 30.33 856 25.28 17.2 63 58 9 48.2
01:05 1027 30.33 856 25.28 17.1 62.7 58 9 48.1
01:10 1027 30.33 856 25.28 17.1 62.7 59 9.1 48.4
01:15 1027 30.33 856 25.28 17 62.7 61 9.5 49.2
01:20 1027 30.33 856 25.28 17.1 62.8 59 9.1 48.4
01:25 1027 30.33 856 25.28 17.3 63.1 59 9.3 48.7
01:30 1027 30.33 856 25.28 16.9 62.4 61 9.4 49
01:35 1027 30.33 856 25.28 16.6 61.9 60 8.9 48
01:40 1027 30.33 856 25.28 16.7 62 58 8.5 47.3
01:45 1027 30.33 856 25.28 16.7 62.1 59 8.8 47.9
01:50 1027 30.33 856 25.28 16.7 62.1 61 9.3 48.7
01:55 1027 30.33 856 25.28 17 62.6 60 9.2 48.6
02:00 1027 30.33 856 25.28 16.8 62.3 61 9.4 48.9
02:05 1027 30.33 856 25.28 16.7 62 61 9.1 48.5
02:10 1027 30.33 856 25.28 16.8 62.2 60 9.1 48.4
02:15 1027 30.33 856 25.28 17.1 62.8 59 9.2 48.5
02:20 1027 30.33 856 25.28 17.4 63.3 59 9.3 48.7
02:25 1027 30.33 856 25.28 17.3 63.2 59 9.3 48.7
02:30 1027 30.33 856 25.28 17.3 63.1 59 9.4 48.9
02:35 1027 30.33 856 25.28 17 62.6 60 9.2 48.6
02:40 1027 30.33 856 25.28 17 62.6 60 9.1 48.5
02:45 1027 30.33 856 25.28 17 62.5 63 9.9 49.8
02:50 1027 30.33 856 25.28 17 62.7 61 9.4 49
02:55 1027 30.33 856 25.28 16.8 62.2 61 9.4 48.9
03:00 1027 30.33 856 25.28 16.6 61.9 61 9.1 48.5
03:05 1027 30.33 856 25.28 16.6 61.8 62 9.2 48.6
03:10 1027 30.33 856 25.28 16 60.8 62 8.8 47.8
03:15 1027 30.33 856 25.28 15.6 60.2 64 9 48.2
03:20 1027 30.33 856 25.28 15.2 59.4 64 8.6 47.5
03:25 1027 30.33 856 25.28 15.4 59.7 63 8.5 47.4
03:30 1027 30.33 856 25.28 15.8 60.5 62 8.6 47.5
03:35 1027 30.33 856 25.28 16.1 61 62 9 48.1
03:40 1027 30.33 856 25.28 16 60.8 64 9.2 48.5
03:45 1027 30.33 856 25.28 15.8 60.5 64 9 48.2
03:50 1027 30.33 856 25.28 15.6 60 64 8.9 48
03:55 1027 30.33 856 25.28 15.4 59.8 64 8.8 47.8
04:00 1027 30.33 856 25.28 15.3 59.6 65 8.7 47.7
04:05 1027 30.33 857 25.31 15.3 59.5 64 8.6 47.5
04:10 1027 30.33 857 25.31 15.4 59.7 64 8.6 47.5
04:15 1027 30.33 857 25.31 15.2 59.4 66 9 48.3
04:20 1027 30.33 857 25.31 15 59.1 66 8.8 47.9
04:25 1027 30.33 857 25.31 14.9 58.8 67 8.8 47.9
04:30 1027 30.33 857 25.31 14.9 58.8 67 8.8 47.9
04:35 1027 30.33 857 25.31 14.7 58.5 68 8.9 48
04:40 1027 30.33 857 25.31 14.5 58.2 70 9.1 48.4
04:45 1027 30.33 857 25.31 14.5 58 69 8.9 48.1
04:50 1027 30.33 857 25.31 14.6 58.2 69 8.9 48
04:55 1027 30.33 857 25.31 14.6 58.3 69 9 48.1
05:00 1027 30.33 857 25.31 14.8 58.6 68 9 48.1
05:05 1028 30.36 857 25.31 14.9 58.8 67 9 48.2
05:10 1028 30.36 857 25.31 15 59 67 9 48.2
05:15 1028 30.36 857 25.31 15 59.1 67 9.1 48.4
05:20 1028 30.36 857 25.31 15 59 68 9.2 48.6
05:25 1028 30.36 857 25.31 14.9 58.9 68 9.1 48.4
05:30 1028 30.36 857 25.31 15 59.1 67 9.1 48.4
05:35 1028 30.36 857 25.31 15.2 59.3 67 9.3 48.7
05:40 1028 30.36 857 25.31 15.3 59.5 67 9.4 48.9
05:45 1028 30.36 857 25.31 15.4 59.7 67 9.4 48.9
05:50 1028 30.36 857 25.31 15.6 60 67 9.5 49.1
05:55 1028 30.36 857 25.31 15.9 60.7 66 9.6 49.2
06:00 1028 30.36 857 25.31 16.1 61 65 9.6 49.3
06:05 1028 30.36 857 25.31 16.3 61.3 65 9.8 49.7
06:10 1028 30.36 857 25.31 16.4 61.6 65 9.9 49.9
06:15 1028 30.36 857 25.31 16.5 61.7 66 10.3 50.5
06:20 1028 30.36 857 25.31 16.8 62.2 65 10.3 50.6
06:25 1028 30.36 857 25.31 17 62.6 65 10.4 50.7
06:30 1028 30.36 857 25.31 17.1 62.8 65 10.5 50.8
06:35 1028 30.36 857 25.31 17.4 63.2 63 10.4 50.7
06:40 1028 30.36 857 25.31 17.7 63.9 63 10.6 51.1
06:45 1028 30.36 857 25.31 17.9 64.1 63 10.7 51.3
06:50 1028 30.36 857 25.31 18.1 64.5 63 11 51.7
06:55 1028 30.36 857 25.31 18.5 65.2 61 10.8 51.4
07:00 1028 30.36 857 25.31 18.8 65.8 60 10.9 51.6
07:05 1028 30.36 857 25.31 19.5 67.1 58 11 51.8
07:10 1028 30.36 857 25.31 19.6 67.3 57 11 51.7
07:15 1028 30.36 857 25.31 19.6 67.3 58 11.2 52.2
07:20 1028 30.36 857 25.31 19.8 67.6 56 10.8 51.4
07:25 1028 30.36 857 25.31 20.2 68.3 55 10.9 51.6
07:30 1028 30.36 857 25.31 20.5 69 54 11 51.8
07:35 1028 30.36 857 25.31 20.8 69.5 53 11 51.8
07:40 1028 30.36 857 25.31 20.8 69.4 51 10.6 51
07:45 1028 30.36 857 25.31 21.7 71 49 10.6 51.2
07:50 1028 30.36 857 25.31 22.3 72.2 48 10.8 51.5
07:55 1028 30.36 857 25.31 22.9 73.1 46 10.7 51.2
08:00 1028 30.36 857 25.31 22.7 72.9 46 10.7 51.2
08:05 1028 30.36 857 25.31 22.5 72.5 45 10.2 50.4
08:10 1028 30.36 857 25.31 23.4 74.2 41 9.6 49.3
08:15 1028 30.36 857 25.31 24 75.3 38 9.2 48.5
08:20 1028 30.36 857 25.31 23.7 74.7 39 9.1 48.4
08:25 1028 30.36 857 25.31 23.7 74.6 40 9.5 49
08:30 1028 30.36 857 25.31 23.6 74.5 41 9.9 49.8
08:35 1028 30.36 857 25.31 23.7 74.7 40 9.7 49.4
08:40 1028 30.36 857 25.31 23.5 74.3 41 9.8 49.7
08:45 1028 30.36 857 25.31 23.6 74.5 42 10 50.1
08:50 1028 30.36 857 25.31 23.9 75 42 10.5 51
08:55 1028 30.36 857 25.31 23.4 74.2 44 10.6 51.2
09:00 1028 30.36 857 25.31 23.8 74.8 44 11 51.8
09:05 1028 30.36 857 25.31 23.9 75 42 10.3 50.6
09:10 1028 30.36 857 25.31 24.5 76.1 42 10.9 51.6
09:15 1028 30.36 857 25.31 24.6 76.3 42 11.2 52.1
09:20 1028 30.36 857 25.31 24.2 75.6 43 11.1 52.1
09:25 1028 30.36 857 25.31 24.4 75.8 41 10.4 50.8
09:30 1028 30.36 857 25.31 24.9 76.8 40 10.6 51.1
09:35 1028 30.36 857 25.31 25.2 77.3 39 10.4 50.6
09:40 1028 30.36 857 25.31 25.3 77.5 40 11.1 52
09:45 1028 30.36 857 25.31 25.2 77.3 39 10.6 51.1
09:50 1028 30.36 857 25.31 25.3 77.6 39 10.5 50.9
09:55 1028 30.36 857 25.31 25.9 78.6 36 10.1 50.2
10:00 1028 30.36 857 25.31 25.7 78.3 39 11 51.8
10:05 1028 30.36 857 25.31 24.8 76.6 38 9.9 49.7
10:10 1028 30.36 857 25.31 25.4 77.8 38 10.3 50.5
10:15 1028 30.36 857 25.31 25.7 78.3 36 10 50
10:20 1028 30.36 857 25.31 25.9 78.5 37 10.4 50.7
10:25 1028 30.36 857 25.31 26.3 79.3 35 10 50
10:30 1028 30.36 857 25.31 26.3 79.3 36 10.5 50.8
10:35 1028 30.36 857 25.31 26.2 79.1 35 9.8 49.7
10:40 1028 30.36 857 25.31 26.6 79.9 35 10 50.1
10:45 1028 30.36 857 25.31 26.6 79.8 36 10.5 50.9
10:50 1028 30.36 857 25.31 26.2 79.1 35 9.7 49.5
10:55 1028 30.36 857 25.31 26 78.7 34 9.1 48.4
11:00 1028 30.36 857 25.31 26.3 79.4 33 9.1 48.3
11:05 1028 30.36 857 25.31 26.8 80.3 33 9.7 49.4
11:10 1028 30.36 857 25.31 26.4 79.4 33 8.9 47.9
11:15 1028 30.36 857 25.31 26.7 80 32 9 48.3
11:20 1028 30.36 857 25.31 27.3 81.1 31 8.9 48
11:25 1028 30.36 857 25.31 27 80.7 31 8.9 48
11:30 1028 30.36 857 25.31 26.5 79.6 33 9 48.2
11:35 1028 30.36 857 25.31 26.6 79.8 31 8.4 47.1
11:40 1027 30.33 857 25.31 27.2 80.9 31 9 48.2
11:45 1027 30.33 857 25.31 27.2 81 30 8.4 47.2
11:50 1027 30.33 857 25.31 28.5 83.2 28 8.4 47
11:55 1027 30.33 857 25.31 28.8 83.8 27 8.4 47.1
12:00 1027 30.33 856 25.28 29.4 84.8 27 8.7 47.6
12:05 1027 30.33 856 25.28 29.7 85.4 26 8.5 47.4
12:10 1027 30.33 856 25.28 29.2 84.6 28 9 48.2
12:15 1027 30.33 856 25.28 28.5 83.2 26 7.7 45.8
12:20 1027 30.33 856 25.28 28.2 82.7 26 7.3 45.2
12:25 1027 30.33 856 25.28 28.9 84 24 6.7 44.1
12:30 1027 30.33 856 25.28 29.7 85.5 23 6.7 44.1
12:35 1027 30.33 856 25.28 28.9 84.1 24 6.5 43.8
12:40 1027 30.33 856 25.28 29.1 84.4 25 7.3 45.1
12:45 1027 30.33 856 25.28 29.2 84.5 24 6.9 44.5
12:50 1027 30.33 856 25.28 29.3 84.8 24 6.9 44.4
12:55 1027 30.33 856 25.28 29.6 85.4 23 6.9 44.4
13:00 1027 30.33 856 25.28 29.6 85.3 22 6.2 43.2
13:05 1027 30.33 856 25.28 29.8 85.7 23 6.5 43.7
13:10 1027 30.33 856 25.28 29.4 84.9 23 6.4 43.5
13:15 1027 30.33 856 25.28 30.1 86.1 23 7 44.6
13:20 1027 30.33 856 25.28 30.4 86.8 22 6.6 43.9
13:25 1027 30.33 856 25.28 31.1 87.9 20 5.7 42.3
13:30 1026 30.3 856 25.28 30.8 87.5 18 4 39.2
13:35 1026 30.3 856 25.28 30 86 19 4.4 39.9
13:40 1026 30.3 856 25.28 30.1 86.3 15 1.3 34.3
13:45 1026 30.3 855 25.25 30 86 18 3.2 37.8
13:50 1026 30.3 855 25.25 30.5 86.9 19 4.6 40.3
13:55 1026 30.3 855 25.25 30.4 86.7 17 2.9 37.3
14:00 1026 30.3 855 25.25 30.4 86.8 17 2.9 37.2
14:05 1026 30.3 855 25.25 30.7 87.2 17 3 37.3
14:10 1026 30.3 855 25.25 31.1 87.9 15 1.9 35.5
14:15 1026 30.3 855 25.25 31.7 89.1 14 1.6 34.9
14:20 1026 30.3 855 25.25 31.1 88 15 2.1 35.7
14:25 1026 30.3 855 25.25 31.3 88.3 17 3.6 38.6
14:30 1026 30.3 855 25.25 31 87.9 17 3.4 38.1
14:35 1026 30.3 855 25.25 31 87.8 16 2.9 37.1
14:40 1026 30.3 855 25.25 31 87.7 17 3.4 38.1
14:45 1026 30.3 855 25.25 30.2 86.4 18 4 39.2
14:50 1026 30.3 855 25.25 30.3 86.5 18 3.7 38.7
14:55 1026 30.3 855 25.25 30.8 87.5 17 3.2 37.7
15:00 1026 30.3 855 25.25 31 87.7 17 3.6 38.5
15:05 1026 30.3 855 25.25 31.3 88.3 17 3.6 38.5
15:10 1026 30.3 855 25.25 31.6 88.9 18 4.5 40.1
15:15 1026 30.3 855 25.25 31.6 88.9 17 3.6 38.4
15:20 1026 30.3 855 25.25 31.1 87.9 16 2.5 36.5
15:25 1025 30.27 855 25.25 30.4 86.8 16 2.6 36.6
15:30 1025 30.27 855 25.25 29.8 85.6 17 2.8 37
15:35 1025 30.27 855 25.25 30.3 86.5 17 3.1 37.6
15:40 1025 30.27 855 25.25 31 87.7 18 4.5 40
15:45 1025 30.27 855 25.25 30.4 86.7 19 4.5 40.2
15:50 1025 30.27 855 25.25 30.7 87.3 17 3.4 38.1
15:55 1025 30.27 855 25.25 31.2 88.2 18 4.2 39.6
16:00 1025 30.27 854 25.22 31.3 88.3 17 3.9 39.1
16:05 1025 30.27 854 25.22 31.6 88.8 18 4.8 40.7
16:10 1025 30.27 854 25.22 31.4 88.4 18 4.2 39.6
16:15 1025 30.27 854 25.22 31.7 89.1 17 4.2 39.6
16:20 1025 30.27 854 25.22 31.2 88.2 18 4.1 39.5
16:25 1025 30.27 854 25.22 30.6 87 19 4.9 40.8
16:30 1025 30.27 854 25.22 30 86 19 4.4 39.9
16:35 1025 30.27 854 25.22 30.8 87.4 18 4.4 39.9
16:40 1025 30.27 854 25.22 30.9 87.7 19 4.7 40.5
16:45 1025 30.27 854 25.22 31 87.7 18 4.2 39.6
16:50 1025 30.27 854 25.22 31.2 88.2 17 3.9 39.1
16:55 1025 30.27 854 25.22 31.1 88 18 4 39.2
17:00 1025 30.27 854 25.22 31 87.7 18 4.4 39.9
17:05 1025 30.27 854 25.22 30.2 86.3 19 4.6 40.3
17:10 1025 30.27 854 25.22 30.9 87.7 17 3.6 38.5
17:15 1025 30.27 854 25.22 31.3 88.4 17 3.7 38.7
17:20 1025 30.27 854 25.22 31.6 88.8 17 4.3 39.7
17:25 1025 30.27 854 25.22 31.6 88.8 18 4.6 40.3
17:30 1025 30.27 854 25.22 31.6 89 17 4.3 39.7
17:35 1025 30.27 854 25.22 31.7 89 18 4.8 40.7
17:40 1025 30.27 854 25.22 31.6 88.9 18 4.4 39.9
17:45 1025 30.27 854 25.22 31.2 88.2 17 3.6 38.5
17:50 1025 30.27 854 25.22 31.2 88.2 17 3.6 38.5
17:55 1025 30.27 854 25.22 31.5 88.7 17 3.8 38.8
18:00 1025 30.27 854 25.22 31.3 88.3 17 3.3 38
18:05 1024 30.24 854 25.22 31.3 88.4 17 3.9 39.1
18:10 1024 30.24 854 25.22 31.4 88.5 17 4 39.2
18:15 1024 30.24 854 25.22 30.8 87.4 22 7.1 44.8
18:20 1024 30.24 854 25.22 29.8 85.6 23 6.6 43.9
18:25 1024 30.24 854 25.22 29.7 85.5 22 6.3 43.4
18:30 1024 30.24 854 25.22 29.4 84.9 23 6.4 43.6
18:35 1024 30.24 854 25.22 29.1 84.4 22 5.8 42.5
18:40 1024 30.24 854 25.22 29.1 84.3 23 6.1 43
18:45 1024 30.24 854 25.22 29.3 84.7 22 5.6 42.1
18:50 1024 30.24 854 25.22 29.4 84.8 24 6.8 44.3
18:55 1024 30.24 854 25.22 29 84.3 24 6.8 44.3
19:00 1024 30.24 854 25.22 28.6 83.5 25 6.9 44.4
19:05 1024 30.24 854 25.22 28.5 83.3 25 6.9 44.4
19:10 1024 30.24 854 25.22 28.4 83 27 7.8 46.1
19:15 1024 30.24 854 25.22 28.2 82.8 26 7.1 44.8
19:20 1024 30.24 854 25.22 28.2 82.7 24 6.1 42.9
19:25 1024 30.24 854 25.22 28.3 82.9 25 6.6 43.8
19:30 1024 30.24 854 25.22 28.2 82.7 27 7.7 45.8
19:35 1024 30.24 854 25.22 28 82.3 27 7.4 45.3
19:40 1024 30.24 854 25.22 27.9 82.2 28 8.1 46.6
19:45 1024 30.24 854 25.22 27.8 82 28 7.9 46.3
19:50 1024 30.24 854 25.22 27.7 81.8 30 8.8 47.8
19:55 1024 30.24 854 25.22 27.4 81.4 30 8.5 47.4
20:00 1024 30.24 854 25.22 27.1 80.8 33 9.8 49.6
20:05 1025 30.27 854 25.22 26.2 79.1 39 11.3 52.4
20:10 1025 30.27 854 25.22 25.4 77.8 38 10.4 50.6
20:15 1025 30.27 854 25.22 25.1 77.1 41 11.1 52
20:20 1025 30.27 854 25.22 24.7 76.5 39 10.2 50.4
20:25 1025 30.27 854 25.22 24.5 76.1 39 9.8 49.7
20:30 1025 30.27 854 25.22 24.1 75.5 40 9.7 49.5
20:35 1025 30.27 854 25.22 23.8 74.9 39 9.2 48.6
20:40 1025 30.27 854 25.22 23.7 74.7 39 9 48.1
20:45 1025 30.27 854 25.22 23.4 74.1 41 9.5 49
20:50 1025 30.27 854 25.22 23 73.3 42 9.6 49.3
20:55 1025 30.27 854 25.22 22.6 72.7 42 9.3 48.7
21:00 1025 30.27 854 25.22 22.2 72 43 9.3 48.7
21:05 1025 30.27 854 25.22 21.9 71.4 43 9.1 48.4
21:10 1025 30.27 854 25.22 22 71.5 41 8.4 47.1
21:15 1025 30.27 854 25.22 22.2 72 43 9.1 48.5
21:20 1025 30.27 854 25.22 21.9 71.4 47 10.1 50.2
21:25 1025 30.27 854 25.22 21.6 70.8 45 9.2 48.5
21:30 1025 30.27 854 25.22 21.2 70.1 45 8.8 47.9
21:35 1025 30.27 854 25.22 21.3 70.3 43 8.5 47.3
21:40 1025 30.27 854 25.22 21.6 70.8 42 8.2 46.7
21:45 1025 30.27 854 25.22 22.1 71.9 40 8.1 46.5
21:50 1025 30.27 854 25.22 22.3 72.1 40 8.3 46.9
21:55 1025 30.27 854 25.22 22.2 72 40 8.3 46.9
22:00 1025 30.27 854 25.22 22.4 72.3 40 8.4 47.2
22:05 1025 30.27 854 25.22 22.5 72.5 41 8.8 47.8
22:10 1025 30.27 854 25.22 22.7 72.9 42 9.3 48.7
22:15 1025 30.27 854 25.22 22.7 72.8 43 9.7 49.5
22:20 1025 30.27 854 25.22 22.7 72.8 44 10 50.1
22:25 1025 30.27 854 25.22 22.6 72.6 45 10.3 50.5
22:30 1025 30.27 854 25.22 22.5 72.5 46 10.4 50.7
22:35 1025 30.27 854 25.22 22.5 72.5 46 10.6 51.1
22:40 1025 30.27 854 25.22 22.6 72.7 46 10.6 51.2
22:45 1025 30.27 854 25.22 22.6 72.7 46 10.6 51.1
22:50 1025 30.27 854 25.22 22.7 72.9 46 10.8 51.4
22:55 1025 30.27 854 25.22 22.8 73 47 10.9 51.6
23:00 1025 30.27 854 25.22 22.6 72.6 47 10.9 51.7
23:05 1025 30.27 854 25.22 22.5 72.5 47 10.9 51.6
23:10 1025 30.27 854 25.22 22.5 72.5 48 11 51.9
23:15 1025 30.27 854 25.22 22.4 72.3 48 11.1 51.9
23:20 1025 30.27 854 25.22 22.2 72 49 11.2 52.1
23:25 1025 30.27 854 25.22 22.1 71.8 49 11.1 52.1
23:30 1025 30.27 854 25.22 22 71.5 50 11.3 52.4
23:35 1025 30.27 854 25.22 21.8 71.3 50 11.2 52.1
23:40 1025 30.27 854 25.22 21.7 71.1 51 11.3 52.3
23:45 1025 30.27 854 25.22 21.6 70.9 51 11.2 52.2
23:50 1025 30.27 854 25.22 21.5 70.8 52 11.3 52.3
23:55 1025 30.27 854 25.22 21.5 70.6 52 11.3 52.4
24:00 1025 30.27 854 25.22 21.4 70.6 52 11.3 52.4